sensor_id;sensor_type;location;lat;lon;timestamp;P1;durP1;ratioP1;P2;durP2;ratioP2
62616;SDS011;62539;51.190;6.808;2022-09-17T00:01:06;3.75;;;0.80;;
62616;SDS011;62539;51.190;6.808;2022-09-17T00:03:34;1.20;;;0.80;;
62616;SDS011;62539;51.190;6.808;2022-09-17T00:06:04;1.58;;;0.80;;
62616;SDS011;62539;51.190;6.808;2022-09-17T00:08:33;1.95;;;0.77;;
62616;SDS011;62539;51.190;6.808;2022-09-17T00:11:05;1.42;;;0.85;;
62616;SDS011;62539;51.190;6.808;2022-09-17T00:13:33;2.30;;;0.80;;
62616;SDS011;62539;51.190;6.808;2022-09-17T00:15:59;1.77;;;0.70;;
62616;SDS011;62539;51.190;6.808;2022-09-17T00:18:25;2.53;;;0.90;;
62616;SDS011;62539;51.190;6.808;2022-09-17T00:20:50;1.75;;;0.80;;
62616;SDS011;62539;51.190;6.808;2022-09-17T00:23:16;2.13;;;0.93;;
62616;SDS011;62539;51.190;6.808;2022-09-17T00:25:42;1.85;;;0.70;;
62616;SDS011;62539;51.190;6.808;2022-09-17T00:28:10;1.15;;;0.60;;
62616;SDS011;62539;51.190;6.808;2022-09-17T00:30:44;0.75;;;0.60;;
62616;SDS011;62539;51.190;6.808;2022-09-17T00:33:12;1.23;;;0.60;;
62616;SDS011;62539;51.190;6.808;2022-09-17T00:35:40;1.45;;;0.60;;
62616;SDS011;62539;51.190;6.808;2022-09-17T00:38:06;1.63;;;0.85;;
62616;SDS011;62539;51.190;6.808;2022-09-17T00:40:32;1.75;;;0.80;;
62616;SDS011;62539;51.190;6.808;2022-09-17T00:42:58;1.23;;;0.60;;
62616;SDS011;62539;51.190;6.808;2022-09-17T00:45:23;1.67;;;0.80;;
62616;SDS011;62539;51.190;6.808;2022-09-17T00:47:57;1.45;;;0.75;;
62616;SDS011;62539;51.190;6.808;2022-09-17T00:50:30;1.52;;;0.60;;
62616;SDS011;62539;51.190;6.808;2022-09-17T00:53:10;1.48;;;0.90;;
62616;SDS011;62539;51.190;6.808;2022-09-17T00:55:44;1.55;;;0.70;;
62616;SDS011;62539;51.190;6.808;2022-09-17T00:58:21;1.48;;;0.65;;
62616;SDS011;62539;51.190;6.808;2022-09-17T01:00:51;1.20;;;0.60;;
62616;SDS011;62539;51.190;6.808;2022-09-17T01:03:16;0.85;;;0.60;;
62616;SDS011;62539;51.190;6.808;2022-09-17T01:05:43;1.65;;;0.63;;
62616;SDS011;62539;51.190;6.808;2022-09-17T01:08:27;1.30;;;0.73;;
62616;SDS011;62539;51.190;6.808;2022-09-17T01:29:33;1.25;;;0.65;;
62616;SDS011;62539;51.190;6.808;2022-09-17T01:32:14;1.95;;;0.65;;
62616;SDS011;62539;51.190;6.808;2022-09-17T01:38:29;1.52;;;0.70;;
62616;SDS011;62539;51.190;6.808;2022-09-17T01:43:56;1.77;;;0.85;;
62616;SDS011;62539;51.190;6.808;2022-09-17T01:46:30;2.28;;;1.02;;
62616;SDS011;62539;51.190;6.808;2022-09-17T01:49:07;0.80;;;0.60;;
62616;SDS011;62539;51.190;6.808;2022-09-17T01:51:39;0.90;;;0.65;;
62616;SDS011;62539;51.190;6.808;2022-09-17T01:56:59;2.67;;;0.65;;
62616;SDS011;62539;51.190;6.808;2022-09-17T01:59:34;1.92;;;0.65;;
62616;SDS011;62539;51.190;6.808;2022-09-17T02:02:10;0.95;;;0.68;;
62616;SDS011;62539;51.190;6.808;2022-09-17T02:04:51;1.85;;;0.80;;
62616;SDS011;62539;51.190;6.808;2022-09-17T02:07:26;1.13;;;0.63;;
62616;SDS011;62539;51.190;6.808;2022-09-17T02:09:59;2.80;;;0.88;;
62616;SDS011;62539;51.190;6.808;2022-09-17T02:12:33;1.13;;;0.68;;
62616;SDS011;62539;51.190;6.808;2022-09-17T02:15:09;2.53;;;0.73;;
62616;SDS011;62539;51.190;6.808;2022-09-17T02:17:51;1.25;;;0.60;;
62616;SDS011;62539;51.190;6.808;2022-09-17T02:20:29;0.98;;;0.60;;
62616;SDS011;62539;51.190;6.808;2022-09-17T02:23:07;1.38;;;0.63;;
62616;SDS011;62539;51.190;6.808;2022-09-17T02:25:49;3.63;;;0.90;;
62616;SDS011;62539;51.190;6.808;2022-09-17T02:28:37;1.52;;;0.70;;
62616;SDS011;62539;51.190;6.808;2022-09-17T02:31:11;1.30;;;0.60;;
62616;SDS011;62539;51.190;6.808;2022-09-17T02:33:36;0.55;;;0.50;;
62616;SDS011;62539;51.190;6.808;2022-09-17T02:36:08;2.20;;;0.70;;
62616;SDS011;62539;51.190;6.808;2022-09-17T02:38:33;1.88;;;0.70;;
62616;SDS011;62539;51.190;6.808;2022-09-17T02:44:00;1.42;;;0.60;;
62616;SDS011;62539;51.190;6.808;2022-09-17T02:47:02;1.65;;;0.60;;
62616;SDS011;62539;51.190;6.808;2022-09-17T02:50:13;1.80;;;0.82;;
62616;SDS011;62539;51.190;6.808;2022-09-17T02:58:20;1.30;;;0.68;;
62616;SDS011;62539;51.190;6.808;2022-09-17T03:00:53;2.08;;;0.70;;
62616;SDS011;62539;51.190;6.808;2022-09-17T03:03:32;1.33;;;0.70;;
62616;SDS011;62539;51.190;6.808;2022-09-17T03:06:03;1.23;;;0.70;;
62616;SDS011;62539;51.190;6.808;2022-09-17T03:08:34;2.40;;;0.80;;
62616;SDS011;62539;51.190;6.808;2022-09-17T03:11:04;1.80;;;0.70;;
62616;SDS011;62539;51.190;6.808;2022-09-17T03:13:33;1.92;;;0.80;;
62616;SDS011;62539;51.190;6.808;2022-09-17T03:16:00;1.52;;;0.68;;
62616;SDS011;62539;51.190;6.808;2022-09-17T03:18:29;0.77;;;0.50;;
62616;SDS011;62539;51.190;6.808;2022-09-17T03:20:56;1.27;;;0.68;;
62616;SDS011;62539;51.190;6.808;2022-09-17T03:23:21;2.45;;;0.73;;
62616;SDS011;62539;51.190;6.808;2022-09-17T03:25:46;1.40;;;0.70;;
62616;SDS011;62539;51.190;6.808;2022-09-17T03:28:13;3.33;;;0.93;;
62616;SDS011;62539;51.190;6.808;2022-09-17T03:30:41;1.60;;;0.57;;
62616;SDS011;62539;51.190;6.808;2022-09-17T03:33:08;1.95;;;0.77;;
62616;SDS011;62539;51.190;6.808;2022-09-17T03:35:34;1.88;;;0.60;;
62616;SDS011;62539;51.190;6.808;2022-09-17T03:38:00;1.73;;;0.70;;
62616;SDS011;62539;51.190;6.808;2022-09-17T03:40:25;1.27;;;0.70;;
62616;SDS011;62539;51.190;6.808;2022-09-17T03:42:50;1.50;;;0.70;;
62616;SDS011;62539;51.190;6.808;2022-09-17T03:45:16;1.50;;;0.70;;
62616;SDS011;62539;51.190;6.808;2022-09-17T03:47:41;2.22;;;0.70;;
62616;SDS011;62539;51.190;6.808;2022-09-17T03:50:07;2.20;;;0.88;;
62616;SDS011;62539;51.190;6.808;2022-09-17T03:52:33;1.08;;;0.60;;
62616;SDS011;62539;51.190;6.808;2022-09-17T03:54:59;1.08;;;0.70;;
62616;SDS011;62539;51.190;6.808;2022-09-17T03:57:24;1.15;;;0.60;;
62616;SDS011;62539;51.190;6.808;2022-09-17T03:59:50;1.55;;;0.60;;
62616;SDS011;62539;51.190;6.808;2022-09-17T04:02:16;0.75;;;0.65;;
62616;SDS011;62539;51.190;6.808;2022-09-17T04:04:41;1.90;;;0.82;;
62616;SDS011;62539;51.190;6.808;2022-09-17T04:07:06;2.28;;;0.88;;
62616;SDS011;62539;51.190;6.808;2022-09-17T04:09:32;1.25;;;0.70;;
62616;SDS011;62539;51.190;6.808;2022-09-17T04:11:57;1.40;;;0.70;;
62616;SDS011;62539;51.190;6.808;2022-09-17T04:14:23;1.60;;;0.70;;
62616;SDS011;62539;51.190;6.808;2022-09-17T04:16:48;2.35;;;0.65;;
62616;SDS011;62539;51.190;6.808;2022-09-17T04:19:14;2.92;;;0.70;;
62616;SDS011;62539;51.190;6.808;2022-09-17T04:21:39;1.85;;;0.70;;
62616;SDS011;62539;51.190;6.808;2022-09-17T04:24:05;0.90;;;0.57;;
62616;SDS011;62539;51.190;6.808;2022-09-17T04:26:30;1.65;;;0.60;;
62616;SDS011;62539;51.190;6.808;2022-09-17T04:28:56;1.40;;;0.60;;
62616;SDS011;62539;51.190;6.808;2022-09-17T04:31:21;1.50;;;0.77;;
62616;SDS011;62539;51.190;6.808;2022-09-17T04:33:48;0.80;;;0.65;;
62616;SDS011;62539;51.190;6.808;2022-09-17T04:36:14;2.40;;;0.80;;
62616;SDS011;62539;51.190;6.808;2022-09-17T04:38:40;2.00;;;0.73;;
62616;SDS011;62539;51.190;6.808;2022-09-17T04:41:06;2.63;;;0.80;;
62616;SDS011;62539;51.190;6.808;2022-09-17T04:43:32;1.70;;;0.70;;
62616;SDS011;62539;51.190;6.808;2022-09-17T04:45:58;1.48;;;0.73;;
62616;SDS011;62539;51.190;6.808;2022-09-17T04:48:23;1.17;;;0.70;;
62616;SDS011;62539;51.190;6.808;2022-09-17T04:50:49;2.38;;;0.80;;
62616;SDS011;62539;51.190;6.808;2022-09-17T04:53:14;1.55;;;0.60;;
62616;SDS011;62539;51.190;6.808;2022-09-17T04:55:41;2.88;;;0.80;;
62616;SDS011;62539;51.190;6.808;2022-09-17T04:58:07;1.00;;;0.60;;
62616;SDS011;62539;51.190;6.808;2022-09-17T05:00:32;2.17;;;0.80;;
62616;SDS011;62539;51.190;6.808;2022-09-17T05:02:59;1.77;;;0.60;;
62616;SDS011;62539;51.190;6.808;2022-09-17T05:05:25;1.23;;;0.70;;
62616;SDS011;62539;51.190;6.808;2022-09-17T05:07:50;0.70;;;0.50;;
62616;SDS011;62539;51.190;6.808;2022-09-17T05:10:17;1.52;;;0.55;;
62616;SDS011;62539;51.190;6.808;2022-09-17T05:12:48;1.35;;;0.60;;
62616;SDS011;62539;51.190;6.808;2022-09-17T05:15:19;0.95;;;0.60;;
62616;SDS011;62539;51.190;6.808;2022-09-17T05:17:47;1.25;;;0.40;;
62616;SDS011;62539;51.190;6.808;2022-09-17T05:20:13;1.83;;;0.63;;
62616;SDS011;62539;51.190;6.808;2022-09-17T05:22:47;1.35;;;0.70;;
62616;SDS011;62539;51.190;6.808;2022-09-17T05:25:15;1.63;;;0.60;;
62616;SDS011;62539;51.190;6.808;2022-09-17T05:27:44;1.27;;;0.85;;
62616;SDS011;62539;51.190;6.808;2022-09-17T05:30:10;2.85;;;0.90;;
62616;SDS011;62539;51.190;6.808;2022-09-17T05:32:37;2.13;;;0.80;;
62616;SDS011;62539;51.190;6.808;2022-09-17T05:35:03;3.08;;;0.77;;
62616;SDS011;62539;51.190;6.808;2022-09-17T05:37:29;1.30;;;0.77;;
62616;SDS011;62539;51.190;6.808;2022-09-17T05:39:55;0.88;;;0.50;;
62616;SDS011;62539;51.190;6.808;2022-09-17T05:42:21;2.30;;;0.70;;
62616;SDS011;62539;51.190;6.808;2022-09-17T05:44:46;2.15;;;0.73;;
62616;SDS011;62539;51.190;6.808;2022-09-17T05:47:12;3.13;;;0.80;;
62616;SDS011;62539;51.190;6.808;2022-09-17T05:49:37;4.68;;;0.68;;
62616;SDS011;62539;51.190;6.808;2022-09-17T05:52:03;1.02;;;0.73;;
62616;SDS011;62539;51.190;6.808;2022-09-17T05:54:28;1.75;;;0.73;;
62616;SDS011;62539;51.190;6.808;2022-09-17T05:56:54;2.80;;;0.90;;
62616;SDS011;62539;51.190;6.808;2022-09-17T05:59:20;2.38;;;0.70;;
62616;SDS011;62539;51.190;6.808;2022-09-17T06:01:46;2.30;;;0.82;;
62616;SDS011;62539;51.190;6.808;2022-09-17T06:04:12;3.20;;;1.40;;
62616;SDS011;62539;51.190;6.808;2022-09-17T06:06:38;1.30;;;0.60;;
62616;SDS011;62539;51.190;6.808;2022-09-17T06:09:05;1.70;;;0.80;;
62616;SDS011;62539;51.190;6.808;2022-09-17T06:11:32;2.92;;;0.80;;
62616;SDS011;62539;51.190;6.808;2022-09-17T06:13:58;1.83;;;0.85;;
62616;SDS011;62539;51.190;6.808;2022-09-17T06:16:24;1.55;;;0.80;;
62616;SDS011;62539;51.190;6.808;2022-09-17T06:18:50;2.63;;;0.75;;
62616;SDS011;62539;51.190;6.808;2022-09-17T06:21:17;1.73;;;0.73;;
62616;SDS011;62539;51.190;6.808;2022-09-17T06:23:45;3.25;;;0.90;;
62616;SDS011;62539;51.190;6.808;2022-09-17T06:26:11;1.80;;;0.52;;
62616;SDS011;62539;51.190;6.808;2022-09-17T06:28:37;3.08;;;1.00;;
62616;SDS011;62539;51.190;6.808;2022-09-17T06:31:04;12.40;;;1.10;;
62616;SDS011;62539;51.190;6.808;2022-09-17T06:33:31;17.83;;;2.10;;
62616;SDS011;62539;51.190;6.808;2022-09-17T06:35:58;9.30;;;1.58;;
62616;SDS011;62539;51.190;6.808;2022-09-17T06:38:27;10.15;;;1.52;;
62616;SDS011;62539;51.190;6.808;2022-09-17T06:40:55;11.30;;;2.38;;
62616;SDS011;62539;51.190;6.808;2022-09-17T06:43:22;6.88;;;1.58;;
62616;SDS011;62539;51.190;6.808;2022-09-17T06:45:54;5.40;;;1.45;;
62616;SDS011;62539;51.190;6.808;2022-09-17T06:48:22;8.13;;;1.35;;
62616;SDS011;62539;51.190;6.808;2022-09-17T06:50:52;12.77;;;1.92;;
62616;SDS011;62539;51.190;6.808;2022-09-17T06:53:19;28.52;;;1.95;;
62616;SDS011;62539;51.190;6.808;2022-09-17T06:55:46;12.73;;;1.77;;
62616;SDS011;62539;51.190;6.808;2022-09-17T06:58:11;17.17;;;1.83;;
62616;SDS011;62539;51.190;6.808;2022-09-17T07:00:37;6.03;;;1.45;;
62616;SDS011;62539;51.190;6.808;2022-09-17T07:03:03;14.98;;;2.03;;
62616;SDS011;62539;51.190;6.808;2022-09-17T07:05:28;18.20;;;1.55;;
62616;SDS011;62539;51.190;6.808;2022-09-17T07:07:54;9.77;;;2.00;;
62616;SDS011;62539;51.190;6.808;2022-09-17T07:10:20;12.93;;;1.95;;
62616;SDS011;62539;51.190;6.808;2022-09-17T07:12:47;13.50;;;1.75;;
62616;SDS011;62539;51.190;6.808;2022-09-17T07:15:13;8.43;;;1.80;;
62616;SDS011;62539;51.190;6.808;2022-09-17T07:17:40;15.57;;;2.28;;
62616;SDS011;62539;51.190;6.808;2022-09-17T07:20:08;10.25;;;2.13;;
62616;SDS011;62539;51.190;6.808;2022-09-17T07:22:35;10.00;;;2.15;;
62616;SDS011;62539;51.190;6.808;2022-09-17T07:25:01;8.23;;;1.83;;
62616;SDS011;62539;51.190;6.808;2022-09-17T07:27:27;10.57;;;2.00;;
62616;SDS011;62539;51.190;6.808;2022-09-17T07:29:54;7.90;;;2.00;;
62616;SDS011;62539;51.190;6.808;2022-09-17T07:32:20;9.32;;;1.92;;
62616;SDS011;62539;51.190;6.808;2022-09-17T07:34:46;6.78;;;1.70;;
62616;SDS011;62539;51.190;6.808;2022-09-17T07:37:13;11.15;;;2.05;;
62616;SDS011;62539;51.190;6.808;2022-09-17T07:39:39;12.30;;;2.40;;
62616;SDS011;62539;51.190;6.808;2022-09-17T07:42:06;11.85;;;1.80;;
62616;SDS011;62539;51.190;6.808;2022-09-17T07:44:32;6.38;;;1.88;;
62616;SDS011;62539;51.190;6.808;2022-09-17T07:46:57;11.80;;;1.75;;
62616;SDS011;62539;51.190;6.808;2022-09-17T07:49:23;8.82;;;1.90;;
62616;SDS011;62539;51.190;6.808;2022-09-17T07:51:48;8.00;;;1.77;;
62616;SDS011;62539;51.190;6.808;2022-09-17T07:54:13;6.15;;;1.67;;
62616;SDS011;62539;51.190;6.808;2022-09-17T07:56:39;6.78;;;1.90;;
62616;SDS011;62539;51.190;6.808;2022-09-17T07:59:04;6.43;;;1.75;;
62616;SDS011;62539;51.190;6.808;2022-09-17T08:01:33;8.57;;;2.00;;
62616;SDS011;62539;51.190;6.808;2022-09-17T08:04:00;7.65;;;1.90;;
62616;SDS011;62539;51.190;6.808;2022-09-17T08:06:26;6.72;;;1.95;;
62616;SDS011;62539;51.190;6.808;2022-09-17T08:08:53;13.15;;;1.90;;
62616;SDS011;62539;51.190;6.808;2022-09-17T08:11:21;17.15;;;2.03;;
62616;SDS011;62539;51.190;6.808;2022-09-17T08:13:50;8.20;;;1.83;;
62616;SDS011;62539;51.190;6.808;2022-09-17T08:16:18;7.07;;;1.45;;
62616;SDS011;62539;51.190;6.808;2022-09-17T08:18:45;13.48;;;1.98;;
62616;SDS011;62539;51.190;6.808;2022-09-17T08:21:13;11.20;;;2.15;;
62616;SDS011;62539;51.190;6.808;2022-09-17T08:23:42;7.78;;;1.73;;
62616;SDS011;62539;51.190;6.808;2022-09-17T08:26:12;12.73;;;1.63;;
62616;SDS011;62539;51.190;6.808;2022-09-17T08:28:44;9.63;;;1.85;;
62616;SDS011;62539;51.190;6.808;2022-09-17T08:31:13;8.57;;;2.05;;
62616;SDS011;62539;51.190;6.808;2022-09-17T08:33:44;7.28;;;1.63;;
62616;SDS011;62539;51.190;6.808;2022-09-17T08:36:12;7.97;;;2.10;;
62616;SDS011;62539;51.190;6.808;2022-09-17T08:38:40;13.73;;;2.10;;
62616;SDS011;62539;51.190;6.808;2022-09-17T08:43:58;101.72;;;12.57;;
62616;SDS011;62539;51.190;6.808;2022-09-17T08:46:41;1999.90;;;395.55;;
62616;SDS011;62539;51.190;6.808;2022-09-17T08:49:30;1999.90;;;461.60;;
62616;SDS011;62539;51.190;6.808;2022-09-17T08:55:06;1999.90;;;409.83;;
62616;SDS011;62539;51.190;6.808;2022-09-17T09:01:17;1171.32;;;152.13;;
62616;SDS011;62539;51.190;6.808;2022-09-17T09:04:03;1247.60;;;177.98;;
62616;SDS011;62539;51.190;6.808;2022-09-17T09:06:59;1251.78;;;183.20;;
62616;SDS011;62539;51.190;6.808;2022-09-17T09:09:36;1238.45;;;171.80;;
62616;SDS011;62539;51.190;6.808;2022-09-17T09:12:13;1197.93;;;178.05;;
62616;SDS011;62539;51.190;6.808;2022-09-17T09:14:50;1161.65;;;169.77;;
62616;SDS011;62539;51.190;6.808;2022-09-17T09:17:28;1067.13;;;159.35;;
62616;SDS011;62539;51.190;6.808;2022-09-17T09:20:05;1003.83;;;148.60;;
62616;SDS011;62539;51.190;6.808;2022-09-17T09:22:51;943.85;;;140.57;;
62616;SDS011;62539;51.190;6.808;2022-09-17T09:25:21;838.42;;;119.47;;
62616;SDS011;62539;51.190;6.808;2022-09-17T09:28:04;836.78;;;127.80;;
62616;SDS011;62539;51.190;6.808;2022-09-17T09:33:55;739.00;;;111.95;;
62616;SDS011;62539;51.190;6.808;2022-09-17T09:36:22;739.45;;;106.78;;
62616;SDS011;62539;51.190;6.808;2022-09-17T09:38:59;716.78;;;107.05;;
62616;SDS011;62539;51.190;6.808;2022-09-17T09:41:43;700.25;;;99.47;;
62616;SDS011;62539;51.190;6.808;2022-09-17T09:44:15;609.35;;;92.13;;
62616;SDS011;62539;51.190;6.808;2022-09-17T09:52:34;588.38;;;87.43;;
62616;SDS011;62539;51.190;6.808;2022-09-17T09:58:38;552.85;;;79.30;;
62616;SDS011;62539;51.190;6.808;2022-09-17T10:01:10;498.55;;;71.70;;
62616;SDS011;62539;51.190;6.808;2022-09-17T10:03:46;463.65;;;67.93;;
62616;SDS011;62539;51.190;6.808;2022-09-17T10:06:16;465.45;;;69.25;;
62616;SDS011;62539;51.190;6.808;2022-09-17T10:13:51;458.30;;;65.95;;
62616;SDS011;62539;51.190;6.808;2022-09-17T10:18:50;414.55;;;61.20;;
62616;SDS011;62539;51.190;6.808;2022-09-17T10:21:48;402.63;;;59.28;;
62616;SDS011;62539;51.190;6.808;2022-09-17T10:24:21;401.58;;;56.33;;
62616;SDS011;62539;51.190;6.808;2022-09-17T10:27:02;391.33;;;56.17;;
62616;SDS011;62539;51.190;6.808;2022-09-17T10:29:37;363.00;;;51.28;;
62616;SDS011;62539;51.190;6.808;2022-09-17T10:32:19;345.52;;;49.05;;
62616;SDS011;62539;51.190;6.808;2022-09-17T10:37:49;318.73;;;46.33;;
62616;SDS011;62539;51.190;6.808;2022-09-17T10:42:42;300.45;;;46.67;;
62616;SDS011;62539;51.190;6.808;2022-09-17T10:45:22;316.20;;;48.80;;
62616;SDS011;62539;51.190;6.808;2022-09-17T10:47:52;308.42;;;45.83;;
62616;SDS011;62539;51.190;6.808;2022-09-17T10:50:26;302.00;;;48.10;;
62616;SDS011;62539;51.190;6.808;2022-09-17T10:52:56;306.60;;;47.25;;
62616;SDS011;62539;51.190;6.808;2022-09-17T10:58:19;272.35;;;46.30;;
62616;SDS011;62539;51.190;6.808;2022-09-17T11:02:32;262.25;;;43.42;;
62616;SDS011;62539;51.190;6.808;2022-09-17T11:04:49;275.35;;;45.10;;
62616;SDS011;62539;51.190;6.808;2022-09-17T11:10:30;274.42;;;41.72;;
62616;SDS011;62539;51.190;6.808;2022-09-17T11:16:29;245.40;;;43.47;;
62616;SDS011;62539;51.190;6.808;2022-09-17T11:19:36;233.40;;;39.40;;
62616;SDS011;62539;51.190;6.808;2022-09-17T11:22:44;237.48;;;39.97;;
62616;SDS011;62539;51.190;6.808;2022-09-17T11:31:07;217.73;;;37.75;;
62616;SDS011;62539;51.190;6.808;2022-09-17T11:42:37;186.20;;;30.45;;
62616;SDS011;62539;51.190;6.808;2022-09-17T11:45:13;162.52;;;26.50;;
62616;SDS011;62539;51.190;6.808;2022-09-17T11:50:33;178.02;;;30.48;;
62616;SDS011;62539;51.190;6.808;2022-09-17T11:55:55;164.65;;;28.83;;
62616;SDS011;62539;51.190;6.808;2022-09-17T12:01:37;144.60;;;27.58;;
62616;SDS011;62539;51.190;6.808;2022-09-17T12:15:48;131.13;;;26.33;;
62616;SDS011;62539;51.190;6.808;2022-09-17T12:21:12;129.55;;;24.10;;
62616;SDS011;62539;51.190;6.808;2022-09-17T12:23:47;125.00;;;23.58;;
62616;SDS011;62539;51.190;6.808;2022-09-17T12:36:24;106.28;;;22.13;;
62616;SDS011;62539;51.190;6.808;2022-09-17T12:38:51;110.35;;;21.50;;
62616;SDS011;62539;51.190;6.808;2022-09-17T12:42:12;84.97;;;18.63;;
62616;SDS011;62539;51.190;6.808;2022-09-17T12:50:52;84.38;;;17.08;;
62616;SDS011;62539;51.190;6.808;2022-09-17T12:59:48;68.20;;;15.18;;
62616;SDS011;62539;51.190;6.808;2022-09-17T13:02:27;49.45;;;8.27;;
62616;SDS011;62539;51.190;6.808;2022-09-17T13:05:14;34.13;;;6.55;;
62616;SDS011;62539;51.190;6.808;2022-09-17T13:08:12;27.92;;;5.97;;
62616;SDS011;62539;51.190;6.808;2022-09-17T13:15:13;41.08;;;7.93;;
62616;SDS011;62539;51.190;6.808;2022-09-17T13:18:03;56.63;;;12.63;;
62616;SDS011;62539;51.190;6.808;2022-09-17T13:23:43;61.90;;;11.60;;
62616;SDS011;62539;51.190;6.808;2022-09-17T13:26:19;22.45;;;4.88;;
62616;SDS011;62539;51.190;6.808;2022-09-17T13:28:58;51.97;;;9.35;;
62616;SDS011;62539;51.190;6.808;2022-09-17T13:34:01;62.25;;;12.68;;
62616;SDS011;62539;51.190;6.808;2022-09-17T13:42:15;53.60;;;10.10;;
62616;SDS011;62539;51.190;6.808;2022-09-17T13:45:06;66.82;;;11.05;;
62616;SDS011;62539;51.190;6.808;2022-09-17T13:47:36;66.15;;;11.85;;
62616;SDS011;62539;51.190;6.808;2022-09-17T13:50:14;46.17;;;8.93;;
62616;SDS011;62539;51.190;6.808;2022-09-17T13:52:53;46.10;;;8.65;;
62616;SDS011;62539;51.190;6.808;2022-09-17T13:58:10;53.53;;;9.15;;
62616;SDS011;62539;51.190;6.808;2022-09-17T14:00:52;48.60;;;8.88;;
62616;SDS011;62539;51.190;6.808;2022-09-17T14:19:24;39.40;;;6.40;;
62616;SDS011;62539;51.190;6.808;2022-09-17T14:22:14;35.78;;;6.65;;
62616;SDS011;62539;51.190;6.808;2022-09-17T14:24:51;35.05;;;6.57;;
62616;SDS011;62539;51.190;6.808;2022-09-17T14:30:25;38.47;;;6.65;;
62616;SDS011;62539;51.190;6.808;2022-09-17T14:32:57;31.15;;;6.47;;
62616;SDS011;62539;51.190;6.808;2022-09-17T14:38:33;33.92;;;5.63;;
62616;SDS011;62539;51.190;6.808;2022-09-17T14:41:04;35.33;;;6.65;;
62616;SDS011;62539;51.190;6.808;2022-09-17T14:43:56;23.63;;;5.03;;
62616;SDS011;62539;51.190;6.808;2022-09-17T14:46:30;29.23;;;6.55;;
62616;SDS011;62539;51.190;6.808;2022-09-17T14:51:56;21.33;;;4.95;;
62616;SDS011;62539;51.190;6.808;2022-09-17T14:54:24;20.55;;;5.50;;
62616;SDS011;62539;51.190;6.808;2022-09-17T14:59:51;28.48;;;5.85;;
62616;SDS011;62539;51.190;6.808;2022-09-17T15:02:36;23.10;;;5.05;;
62616;SDS011;62539;51.190;6.808;2022-09-17T15:07:50;25.85;;;5.10;;
62616;SDS011;62539;51.190;6.808;2022-09-17T15:10:29;19.95;;;4.55;;
62616;SDS011;62539;51.190;6.808;2022-09-17T15:12:55;21.40;;;5.22;;
62616;SDS011;62539;51.190;6.808;2022-09-17T15:15:23;17.23;;;5.10;;
62616;SDS011;62539;51.190;6.808;2022-09-17T15:17:51;20.75;;;4.45;;
62616;SDS011;62539;51.190;6.808;2022-09-17T15:20:19;18.65;;;4.82;;
62616;SDS011;62539;51.190;6.808;2022-09-17T15:23:12;17.52;;;4.55;;
62616;SDS011;62539;51.190;6.808;2022-09-17T15:25:42;14.02;;;3.90;;
62616;SDS011;62539;51.190;6.808;2022-09-17T15:28:18;19.98;;;4.50;;
62616;SDS011;62539;51.190;6.808;2022-09-17T15:30:53;22.52;;;5.15;;
62616;SDS011;62539;51.190;6.808;2022-09-17T15:33:19;16.63;;;4.32;;
62616;SDS011;62539;51.190;6.808;2022-09-17T15:36:08;17.90;;;4.53;;
62616;SDS011;62539;51.190;6.808;2022-09-17T15:38:45;14.18;;;4.05;;
62616;SDS011;62539;51.190;6.808;2022-09-17T15:41:33;20.23;;;5.03;;
62616;SDS011;62539;51.190;6.808;2022-09-17T15:44:10;11.23;;;3.70;;
62616;SDS011;62539;51.190;6.808;2022-09-17T15:46:51;19.50;;;4.65;;
62616;SDS011;62539;51.190;6.808;2022-09-17T15:49:28;18.25;;;4.82;;
62616;SDS011;62539;51.190;6.808;2022-09-17T15:52:18;18.20;;;4.50;;
62616;SDS011;62539;51.190;6.808;2022-09-17T15:54:53;14.65;;;4.47;;
62616;SDS011;62539;51.190;6.808;2022-09-17T15:57:19;15.13;;;4.53;;
62616;SDS011;62539;51.190;6.808;2022-09-17T15:59:46;16.10;;;4.03;;
62616;SDS011;62539;51.190;6.808;2022-09-17T16:05:10;11.85;;;3.67;;
62616;SDS011;62539;51.190;6.808;2022-09-17T16:07:41;14.68;;;3.72;;
62616;SDS011;62539;51.190;6.808;2022-09-17T16:10:09;13.40;;;3.92;;
62616;SDS011;62539;51.190;6.808;2022-09-17T16:12:38;13.30;;;4.05;;
62616;SDS011;62539;51.190;6.808;2022-09-17T16:15:04;10.85;;;3.55;;
62616;SDS011;62539;51.190;6.808;2022-09-17T16:17:46;13.68;;;3.63;;
62616;SDS011;62539;51.190;6.808;2022-09-17T16:20:30;11.88;;;3.90;;
62616;SDS011;62539;51.190;6.808;2022-09-17T16:22:56;16.73;;;3.58;;
62616;SDS011;62539;51.190;6.808;2022-09-17T16:25:25;15.38;;;3.90;;
62616;SDS011;62539;51.190;6.808;2022-09-17T16:27:54;16.83;;;3.85;;
62616;SDS011;62539;51.190;6.808;2022-09-17T16:30:26;12.68;;;3.42;;
62616;SDS011;62539;51.190;6.808;2022-09-17T16:32:51;11.63;;;3.55;;
62616;SDS011;62539;51.190;6.808;2022-09-17T16:35:19;9.63;;;3.47;;
62616;SDS011;62539;51.190;6.808;2022-09-17T16:37:48;11.65;;;2.97;;
62616;SDS011;62539;51.190;6.808;2022-09-17T16:40:15;11.27;;;3.42;;
62616;SDS011;62539;51.190;6.808;2022-09-17T16:42:41;12.52;;;3.65;;
62616;SDS011;62539;51.190;6.808;2022-09-17T16:45:07;10.60;;;3.78;;
62616;SDS011;62539;51.190;6.808;2022-09-17T16:47:36;11.73;;;3.13;;
62616;SDS011;62539;51.190;6.808;2022-09-17T16:50:05;9.35;;;3.08;;
62616;SDS011;62539;51.190;6.808;2022-09-17T16:52:34;13.53;;;3.47;;
62616;SDS011;62539;51.190;6.808;2022-09-17T16:55:00;13.00;;;3.20;;
62616;SDS011;62539;51.190;6.808;2022-09-17T16:57:28;10.65;;;2.90;;
62616;SDS011;62539;51.190;6.808;2022-09-17T16:59:56;8.43;;;3.33;;
62616;SDS011;62539;51.190;6.808;2022-09-17T17:02:21;10.20;;;2.92;;
62616;SDS011;62539;51.190;6.808;2022-09-17T17:04:47;8.95;;;2.83;;
62616;SDS011;62539;51.190;6.808;2022-09-17T17:07:12;11.35;;;2.85;;
62616;SDS011;62539;51.190;6.808;2022-09-17T17:09:38;9.98;;;3.17;;
62616;SDS011;62539;51.190;6.808;2022-09-17T17:12:04;10.02;;;3.17;;
62616;SDS011;62539;51.190;6.808;2022-09-17T17:14:29;11.05;;;2.75;;
62616;SDS011;62539;51.190;6.808;2022-09-17T17:16:55;7.30;;;2.70;;
62616;SDS011;62539;51.190;6.808;2022-09-17T17:19:20;8.25;;;2.72;;
62616;SDS011;62539;51.190;6.808;2022-09-17T17:21:48;10.52;;;3.10;;
62616;SDS011;62539;51.190;6.808;2022-09-17T17:24:14;8.63;;;2.97;;
62616;SDS011;62539;51.190;6.808;2022-09-17T17:26:40;8.00;;;3.03;;
62616;SDS011;62539;51.190;6.808;2022-09-17T17:29:05;7.90;;;2.90;;
62616;SDS011;62539;51.190;6.808;2022-09-17T17:31:32;6.88;;;2.70;;
62616;SDS011;62539;51.190;6.808;2022-09-17T17:33:57;7.47;;;3.05;;
62616;SDS011;62539;51.190;6.808;2022-09-17T17:36:22;9.35;;;2.97;;
62616;SDS011;62539;51.190;6.808;2022-09-17T17:38:48;7.50;;;2.97;;
62616;SDS011;62539;51.190;6.808;2022-09-17T17:41:13;8.20;;;2.60;;
62616;SDS011;62539;51.190;6.808;2022-09-17T17:43:40;8.52;;;2.85;;
62616;SDS011;62539;51.190;6.808;2022-09-17T17:46:09;7.45;;;2.45;;
62616;SDS011;62539;51.190;6.808;2022-09-17T17:48:35;9.10;;;2.53;;
62616;SDS011;62539;51.190;6.808;2022-09-17T17:51:03;11.27;;;2.78;;
62616;SDS011;62539;51.190;6.808;2022-09-17T17:53:31;8.35;;;2.70;;
62616;SDS011;62539;51.190;6.808;2022-09-17T17:56:01;6.65;;;2.42;;
62616;SDS011;62539;51.190;6.808;2022-09-17T17:58:31;7.43;;;2.60;;
62616;SDS011;62539;51.190;6.808;2022-09-17T18:00:57;6.75;;;2.60;;
62616;SDS011;62539;51.190;6.808;2022-09-17T18:03:23;8.55;;;2.45;;
62616;SDS011;62539;51.190;6.808;2022-09-17T18:05:50;7.10;;;2.60;;
62616;SDS011;62539;51.190;6.808;2022-09-17T18:08:22;7.38;;;2.60;;
62616;SDS011;62539;51.190;6.808;2022-09-17T18:10:52;9.13;;;2.60;;
62616;SDS011;62539;51.190;6.808;2022-09-17T18:13:22;6.57;;;2.58;;